createdAt,value
2019-02-25T00:00:18.549Z,0.09
2019-02-25T00:02:47.111Z,0.13
2019-02-25T00:05:15.635Z,0.05
2019-02-25T00:07:44.242Z,-0.13
2019-02-25T00:10:12.868Z,-0.11
2019-02-25T00:12:41.416Z,-0.11
2019-02-25T00:15:10.892Z,-0.01
2019-02-25T00:17:40.531Z,-0.14
2019-02-25T00:20:12.681Z,-0.04
2019-02-25T00:22:41.245Z,-0.09
2019-02-25T00:25:13.354Z,0.00
2019-02-25T00:27:41.966Z,0.00
2019-02-25T00:30:13.599Z,0.12
2019-02-25T00:32:42.180Z,0.26
2019-02-25T00:35:10.783Z,0.22
2019-02-25T00:37:39.347Z,0.30
2019-02-25T00:40:10.032Z,0.34
2019-02-25T00:42:38.603Z,0.45
2019-02-25T00:45:15.233Z,0.42
2019-02-25T00:47:43.882Z,0.20
2019-02-25T00:50:17.420Z,-0.03
2019-02-25T00:52:45.994Z,-0.12
2019-02-25T00:55:15.754Z,-0.21
2019-02-25T00:57:44.316Z,-0.24
2019-02-25T01:00:20.296Z,-0.15
2019-02-25T01:02:49.256Z,-0.24
2019-02-25T01:05:18.530Z,-0.21
2019-02-25T01:07:47.152Z,-0.19
2019-02-25T01:10:17.865Z,-0.34
2019-02-25T01:12:46.857Z,-0.27
2019-02-25T01:15:16.414Z,-0.20
2019-02-25T01:17:45.131Z,-0.27
2019-02-25T01:20:17.384Z,-0.38
2019-02-25T01:22:46.053Z,-0.34
2019-02-25T01:25:18.302Z,-0.31
2019-02-25T01:27:46.861Z,-0.31
2019-02-25T01:30:20.165Z,-0.36
2019-02-25T01:32:48.734Z,-0.40
2019-02-25T01:35:17.341Z,-0.48
2019-02-25T01:37:45.921Z,-0.43
2019-02-25T01:40:15.153Z,-0.42
2019-02-25T01:42:43.751Z,-0.45
2019-02-25T01:45:17.525Z,-0.47
2019-02-25T01:47:46.340Z,-0.49
2019-02-25T01:50:14.828Z,-0.28
2019-02-25T01:52:43.397Z,-0.40
2019-02-25T01:55:15.417Z,-0.53
2019-02-25T01:57:44.077Z,-0.54
2019-02-25T02:00:19.273Z,-0.54
2019-02-25T02:02:48.368Z,-0.59
2019-02-25T02:05:17.033Z,-0.51
2019-02-25T02:07:45.757Z,-0.55
2019-02-25T02:10:18.219Z,-0.65
2019-02-25T02:12:46.942Z,-0.46
2019-02-25T02:15:18.186Z,-0.65
2019-02-25T02:17:46.901Z,-0.65
2019-02-25T02:20:17.243Z,-0.70
2019-02-25T02:22:46.378Z,-0.67
2019-02-25T02:25:14.957Z,-0.87
2019-02-25T02:27:43.644Z,-0.73
2019-02-25T02:30:20.071Z,-0.80
2019-02-25T02:32:49.029Z,-0.56
2019-02-25T02:35:17.601Z,-0.27
2019-02-25T02:37:46.150Z,-0.25
2019-02-25T02:40:15.100Z,-0.61
2019-02-25T02:43:00.265Z,-0.53
2019-02-25T02:45:48.685Z,-0.62
2019-02-25T02:48:26.269Z,-0.66
2019-02-25T02:50:54.893Z,-0.69
2019-02-25T02:53:23.393Z,-0.74
2019-02-25T02:55:51.976Z,-0.80
2019-02-25T02:58:20.496Z,-0.81
2019-02-25T03:00:49.131Z,-0.76
2019-02-25T03:03:17.636Z,-0.83
2019-02-25T03:05:46.205Z,-0.76
2019-02-25T03:08:14.719Z,-0.61
2019-02-25T03:10:43.310Z,-0.69
2019-02-25T03:13:11.825Z,-0.81
2019-02-25T03:15:40.417Z,-0.81
2019-02-25T03:18:08.942Z,-0.79
2019-02-25T03:20:37.539Z,-0.94
2019-02-25T03:23:06.053Z,-0.83
2019-02-25T03:25:34.726Z,-0.75
2019-02-25T03:28:03.257Z,-0.87
2019-02-25T03:30:31.847Z,-0.71
2019-02-25T03:33:00.487Z,-0.65
2019-02-25T03:35:29.173Z,-0.80
2019-02-25T03:37:57.715Z,-0.92
2019-02-25T03:40:26.284Z,-0.87
2019-02-25T03:42:54.809Z,-0.83
2019-02-25T03:45:23.388Z,-0.75
2019-02-25T03:47:51.941Z,-0.78
2019-02-25T03:50:20.540Z,-0.94
2019-02-25T03:52:49.056Z,-0.95
2019-02-25T03:55:21.591Z,-1.05
2019-02-25T03:57:50.261Z,-0.90
2019-02-25T04:00:25.742Z,-0.90
2019-02-25T04:02:54.330Z,-0.89
2019-02-25T04:05:22.849Z,-0.83
2019-02-25T04:07:51.634Z,-0.90
2019-02-25T04:10:20.182Z,-0.98
2019-02-25T04:12:48.774Z,-1.06
2019-02-25T04:15:23.242Z,-1.02
2019-02-25T04:17:51.910Z,-1.11
2019-02-25T04:20:20.496Z,-1.16
2019-02-25T04:22:49.097Z,-1.12
2019-02-25T04:25:17.628Z,-1.14
2019-02-25T04:27:46.264Z,-1.11
2019-02-25T04:30:16.359Z,-1.17
2019-02-25T04:32:44.982Z,-1.17
2019-02-25T04:35:14.192Z,-1.14
2019-02-25T04:37:42.764Z,-1.10
2019-02-25T04:40:14.995Z,-1.01
2019-02-25T04:42:43.569Z,-0.96
2019-02-25T04:45:20.525Z,-1.06
2019-02-25T04:47:49.092Z,-1.12
2019-02-25T04:50:17.627Z,-1.21
2019-02-25T04:52:46.192Z,-1.19
2019-02-25T04:55:16.280Z,-1.20
2019-02-25T04:57:44.883Z,-1.35
2019-02-25T05:00:18.596Z,-1.28
2019-02-25T05:02:47.580Z,-1.38
2019-02-25T05:05:16.136Z,-1.26
2019-02-25T05:07:44.712Z,-1.05
2019-02-25T05:10:14.888Z,-1.27
2019-02-25T05:12:47.703Z,-1.52
2019-02-25T05:15:17.930Z,-1.27
2019-02-25T05:17:51.987Z,-1.35
2019-02-25T05:20:20.582Z,-1.33
2019-02-25T05:22:49.122Z,-1.40
2019-02-25T05:25:17.748Z,-1.40
2019-02-25T05:27:46.360Z,-1.36
2019-02-25T05:30:16.940Z,-1.40
2019-02-25T05:32:45.522Z,-1.40
2019-02-25T05:35:14.428Z,-1.56
2019-02-25T05:37:43.086Z,-1.53
2019-02-25T05:40:19.622Z,-1.46
2019-02-25T05:42:48.177Z,-1.53
2019-02-25T05:45:17.167Z,-1.44
2019-02-25T05:47:45.695Z,-1.42
2019-02-25T05:50:16.044Z,-1.49
2019-02-25T05:52:44.647Z,-1.41
2019-02-25T05:55:14.645Z,-1.45
2019-02-25T05:57:43.194Z,-1.38
2019-02-25T06:00:24.319Z,-1.50
2019-02-25T06:02:52.967Z,-1.52
2019-02-25T06:05:21.637Z,-1.55
2019-02-25T06:07:50.243Z,-1.60
2019-02-25T06:10:18.845Z,-1.65
2019-02-25T06:12:47.523Z,-1.65
2019-02-25T06:15:17.605Z,-1.61
2019-02-25T06:17:46.521Z,-1.62
2019-02-25T06:20:16.010Z,-1.59
2019-02-25T06:22:44.651Z,-1.55
2019-02-25T06:25:14.462Z,-1.59
2019-02-25T06:27:43.074Z,-1.49
2019-02-25T06:30:19.789Z,-1.50
2019-02-25T06:32:48.477Z,-1.46
2019-02-25T06:35:17.100Z,-1.44
2019-02-25T06:37:45.731Z,-1.28
2019-02-25T06:40:20.957Z,-1.31
2019-02-25T06:42:49.551Z,-1.12
2019-02-25T06:45:26.476Z,-1.16
2019-02-25T06:47:55.070Z,-1.19
2019-02-25T06:50:23.638Z,-1.32
2019-02-25T06:52:52.377Z,-1.29
2019-02-25T06:55:21.914Z,-1.21
2019-02-25T06:57:50.489Z,-0.93
2019-02-25T07:00:22.908Z,-0.70
2019-02-25T07:02:51.547Z,-0.73
2019-02-25T07:05:33.721Z,-0.99
2019-02-25T07:08:12.970Z,-0.92
2019-02-25T07:10:47.612Z,-0.85
2019-02-25T07:13:32.850Z,-0.62
2019-02-25T07:16:03.111Z,-0.62
2019-02-25T07:18:49.478Z,-0.42
2019-02-25T07:21:37.790Z,-0.37
2019-02-25T07:24:08.007Z,-0.04
2019-02-25T07:26:53.340Z,0.34
2019-02-25T07:29:39.936Z,0.35
2019-02-25T07:32:19.280Z,0.49
2019-02-25T07:34:49.542Z,0.39
2019-02-25T07:37:19.908Z,0.49
2019-02-25T07:39:52.973Z,0.78
2019-02-25T07:42:26.840Z,0.66
2019-02-25T07:44:57.421Z,0.82
2019-02-25T07:47:42.391Z,1.27
2019-02-25T07:50:30.732Z,1.58
2019-02-25T07:53:13.199Z,1.73
2019-02-25T07:55:46.586Z,1.78
2019-02-25T07:58:26.163Z,2.31
2019-02-25T08:00:56.587Z,2.78
2019-02-25T08:03:26.768Z,3.02
2019-02-25T08:05:59.726Z,3.36
2019-02-25T08:08:33.408Z,3.57
2019-02-25T08:11:09.819Z,3.68
2019-02-25T08:13:40.165Z,4.04
2019-02-25T08:16:15.831Z,4.21
2019-02-25T08:19:04.148Z,4.36
2019-02-25T08:21:50.262Z,4.59
2019-02-25T08:24:32.298Z,4.69
2019-02-25T08:27:14.406Z,4.94
2019-02-25T08:29:59.922Z,5.06
2019-02-25T08:32:33.514Z,5.08
2019-02-25T08:35:13.038Z,5.36
2019-02-25T08:37:52.299Z,5.49
2019-02-25T08:40:34.261Z,5.46
2019-02-25T08:43:18.503Z,5.64
2019-02-25T08:45:51.755Z,5.72
2019-02-25T08:48:22.052Z,5.83
2019-02-25T08:50:50.648Z,6.01
2019-02-25T08:53:19.347Z,6.19
2019-02-25T08:55:47.889Z,6.33
2019-02-25T08:58:16.509Z,6.44
2019-02-25T09:00:45.071Z,6.52
2019-02-25T09:03:13.754Z,6.68
2019-02-25T09:05:42.385Z,6.94
2019-02-25T09:08:11.041Z,6.90
2019-02-25T09:10:39.547Z,7.07
2019-02-25T09:13:08.108Z,6.96
2019-02-25T09:15:36.668Z,7.28
2019-02-25T09:18:04.231Z,7.20
2019-02-25T09:20:32.815Z,7.44
2019-02-25T09:23:01.421Z,7.52
2019-02-25T09:25:30.660Z,7.63
2019-02-25T09:27:59.649Z,7.69
2019-02-25T09:30:29.295Z,7.80
2019-02-25T09:32:57.935Z,8.15
2019-02-25T09:35:26.487Z,8.08
2019-02-25T09:37:55.192Z,8.27
2019-02-25T09:40:23.845Z,8.42
2019-02-25T09:42:52.507Z,8.42
2019-02-25T09:45:21.153Z,8.49
2019-02-25T09:47:49.777Z,8.67
2019-02-25T09:50:22.661Z,8.90
2019-02-25T09:52:51.366Z,8.77
2019-02-25T09:55:19.961Z,9.09
2019-02-25T09:57:49.291Z,9.33
2019-02-25T10:00:22.392Z,9.31
2019-02-25T10:02:51.294Z,9.13
2019-02-25T10:05:19.987Z,9.18
2019-02-25T10:07:48.672Z,9.17
2019-02-25T10:10:18.531Z,9.18
2019-02-25T10:12:47.183Z,9.45
2019-02-25T10:15:21.390Z,9.69
2019-02-25T10:17:50.048Z,10.07
2019-02-25T10:20:18.575Z,10.36
2019-02-25T10:22:47.297Z,10.55
2019-02-25T10:25:15.874Z,10.77
2019-02-25T10:27:44.450Z,10.75
2019-02-25T10:30:21.000Z,10.46
2019-02-25T10:32:49.711Z,10.88
2019-02-25T10:35:21.304Z,10.91
2019-02-25T10:37:50.835Z,11.26
2019-02-25T10:40:24.055Z,11.13
2019-02-25T10:42:50.256Z,11.38
2019-02-25T10:45:22.846Z,12.64
2019-02-25T10:47:56.589Z,14.36
2019-02-25T10:50:22.163Z,14.05
2019-02-25T10:52:50.806Z,13.49
2019-02-25T10:55:37.839Z,12.21
2019-02-25T10:58:09.799Z,13.01
2019-02-25T11:00:39.498Z,14.50
2019-02-25T11:03:10.562Z,14.79
2019-02-25T11:05:39.101Z,14.89
2019-02-25T11:08:11.154Z,14.27
2019-02-25T11:10:41.346Z,16.83
2019-02-25T11:13:09.911Z,16.61
2019-02-25T11:15:41.716Z,16.82
2019-02-25T11:18:09.986Z,17.17
2019-02-25T11:20:39.038Z,17.54
2019-02-25T11:23:07.552Z,16.70
2019-02-25T11:25:36.261Z,17.00
2019-02-25T11:28:07.029Z,17.12
2019-02-25T11:30:35.528Z,17.98
2019-02-25T11:33:04.163Z,17.81
2019-02-25T11:35:34.445Z,18.41
2019-02-25T11:38:04.685Z,18.11
2019-02-25T11:40:35.492Z,16.18
2019-02-25T11:43:03.698Z,17.01
2019-02-25T11:45:32.990Z,17.90
2019-02-25T11:48:01.776Z,19.12
2019-02-25T11:50:30.508Z,19.35
2019-02-25T11:52:59.227Z,17.91
2019-02-25T11:55:27.931Z,17.13
2019-02-25T11:57:56.544Z,17.35
2019-02-25T12:00:29.996Z,16.41
2019-02-25T12:02:58.709Z,17.33
2019-02-25T12:05:27.645Z,16.95
2019-02-25T12:07:56.345Z,16.27
2019-02-25T12:10:24.888Z,18.18
2019-02-25T12:12:54.507Z,20.48
2019-02-25T12:15:23.637Z,21.75
2019-02-25T12:17:52.232Z,20.58
2019-02-25T12:20:20.842Z,21.06
2019-02-25T12:22:49.507Z,20.87
2019-02-25T12:25:25.364Z,20.35
2019-02-25T12:27:53.999Z,18.83
2019-02-25T12:30:27.909Z,18.59
2019-02-25T12:32:56.465Z,17.52
2019-02-25T12:35:25.043Z,20.47
2019-02-25T12:37:54.677Z,20.02
2019-02-25T12:40:23.247Z,17.99
2019-02-25T12:42:53.121Z,17.07
2019-02-25T12:45:21.728Z,17.87
2019-02-25T12:47:50.734Z,15.89
2019-02-25T12:50:20.273Z,15.84
2019-02-25T12:52:48.931Z,16.15
2019-02-25T12:55:18.641Z,15.81
2019-02-25T12:57:47.191Z,17.66
2019-02-25T13:00:17.809Z,17.66
2019-02-25T13:02:46.467Z,17.54
2019-02-25T13:05:20.621Z,17.46
2019-02-25T13:07:49.256Z,17.76
2019-02-25T13:10:18.749Z,17.98
2019-02-25T13:12:47.381Z,17.24
2019-02-25T13:15:17.333Z,17.45
2019-02-25T13:17:46.971Z,16.54
2019-02-25T13:20:16.128Z,16.54
2019-02-25T13:22:44.746Z,17.51
2019-02-25T13:25:15.725Z,16.68
2019-02-25T13:27:44.285Z,18.12
2019-02-25T13:30:18.191Z,17.30
2019-02-25T13:32:46.840Z,17.08
2019-02-25T13:35:16.530Z,18.02
2019-02-25T13:37:45.198Z,17.55
2019-02-25T13:40:15.195Z,17.24
2019-02-25T13:42:44.324Z,16.84
2019-02-25T13:45:17.722Z,16.98
2019-02-25T13:47:46.508Z,17.53
2019-02-25T13:50:16.326Z,18.87
2019-02-25T13:52:48.570Z,18.41
2019-02-25T13:55:23.208Z,17.95
2019-02-25T13:57:51.807Z,16.58
2019-02-25T14:00:28.076Z,15.96
2019-02-25T14:02:56.760Z,15.44
2019-02-25T14:05:25.527Z,15.16
2019-02-25T14:07:54.082Z,14.55
2019-02-25T14:10:22.793Z,14.54
2019-02-25T14:12:51.503Z,14.15
2019-02-25T14:15:21.862Z,14.23
2019-02-25T14:17:50.862Z,14.19
2019-02-25T14:20:20.842Z,14.07
2019-02-25T14:22:49.535Z,14.09
2019-02-25T14:25:27.029Z,13.82
2019-02-25T14:27:56.101Z,13.90
2019-02-25T14:30:26.052Z,13.92
2019-02-25T14:32:55.300Z,13.98
2019-02-25T14:35:31.999Z,13.85
2019-02-25T14:38:07.681Z,13.72
2019-02-25T14:40:39.367Z,13.62
2019-02-25T14:43:10.605Z,13.56
2019-02-25T14:45:41.513Z,13.59
2019-02-25T14:48:10.535Z,13.64
2019-02-25T14:50:39.033Z,13.55
2019-02-25T14:53:09.161Z,13.50
2019-02-25T14:55:38.107Z,13.39
2019-02-25T14:58:07.405Z,13.36
2019-02-25T15:00:38.138Z,13.25
2019-02-25T15:03:06.960Z,13.13
2019-02-25T15:05:36.564Z,13.16
2019-02-25T15:08:06.224Z,13.11
2019-02-25T15:10:36.229Z,13.09
2019-02-25T15:13:06.680Z,13.09
2019-02-25T15:15:37.060Z,13.01
2019-02-25T15:18:05.790Z,12.88
2019-02-25T15:20:35.156Z,12.71
2019-02-25T15:23:04.803Z,12.79
2019-02-25T15:25:35.845Z,12.70
2019-02-25T15:28:07.128Z,12.76
2019-02-25T15:30:34.321Z,12.70
2019-02-25T15:33:02.970Z,12.72
2019-02-25T15:35:34.544Z,12.46
2019-02-25T15:38:02.018Z,12.66
2019-02-25T15:40:32.863Z,12.66
2019-02-25T15:43:04.177Z,12.63
2019-02-25T15:45:38.327Z,12.50
2019-02-25T15:48:10.100Z,12.48
2019-02-25T15:50:38.950Z,12.44
2019-02-25T15:53:09.589Z,12.35
2019-02-25T15:55:39.343Z,12.39
2019-02-25T15:58:09.160Z,12.44
2019-02-25T16:00:39.370Z,12.43
2019-02-25T16:03:10.615Z,12.25
2019-02-25T16:05:39.055Z,12.16
2019-02-25T16:08:09.474Z,12.13
2019-02-25T16:10:38.300Z,12.14
2019-02-25T16:13:11.095Z,11.82
2019-02-25T16:15:38.128Z,11.86
2019-02-25T16:18:06.839Z,11.69
2019-02-25T16:20:35.726Z,11.41
2019-02-25T16:23:07.656Z,11.31
2019-02-25T16:25:35.923Z,11.14
2019-02-25T16:28:06.058Z,11.07
2019-02-25T16:30:35.323Z,11.05
2019-02-25T16:33:04.890Z,10.79
2019-02-25T16:35:35.210Z,10.71
2019-02-25T16:38:05.680Z,10.54
2019-02-25T16:40:36.179Z,10.58
2019-02-25T16:43:07.760Z,10.37
2019-02-25T16:45:37.901Z,10.32
2019-02-25T16:48:07.423Z,10.39
2019-02-25T16:50:36.775Z,9.99
2019-02-25T16:53:08.547Z,9.96
2019-02-25T16:55:36.601Z,9.85
2019-02-25T16:58:06.982Z,9.77
2019-02-25T17:00:37.242Z,9.53
2019-02-25T17:03:06.665Z,9.31
2019-02-25T17:05:37.950Z,9.24
2019-02-25T17:08:10.397Z,9.15
2019-02-25T17:10:39.930Z,9.01
2019-02-25T17:13:10.178Z,8.67
2019-02-25T17:15:38.829Z,8.68
2019-02-25T17:18:07.375Z,8.59
2019-02-25T17:20:35.979Z,8.38
2019-02-25T17:23:04.491Z,8.11
2019-02-25T17:25:34.013Z,8.35
2019-02-25T17:28:03.273Z,8.16
2019-02-25T17:30:31.876Z,8.18
2019-02-25T17:33:02.971Z,8.01
2019-02-25T17:35:31.920Z,7.83
2019-02-25T17:38:01.371Z,7.78
2019-02-25T17:40:31.052Z,7.80
2019-02-25T17:43:00.810Z,7.72
2019-02-25T17:45:32.489Z,7.58
2019-02-25T17:48:03.253Z,7.64
2019-02-25T17:50:34.261Z,7.64
2019-02-25T17:53:03.023Z,7.57
2019-02-25T17:55:34.466Z,7.03
2019-02-25T17:58:02.536Z,6.89
2019-02-25T18:00:41.804Z,6.83
2019-02-25T18:03:09.720Z,6.81
2019-02-25T18:05:40.564Z,6.95
2019-02-25T18:08:13.318Z,6.91
2019-02-25T18:10:43.115Z,6.88
2019-02-25T18:13:12.584Z,6.74
2019-02-25T18:15:41.513Z,6.30
2019-02-25T18:18:12.558Z,6.48
2019-02-25T18:20:41.080Z,6.74
2019-02-25T18:23:10.024Z,6.84
2019-02-25T18:25:40.142Z,6.26
2019-02-25T18:28:12.786Z,6.56
2019-02-25T18:30:42.539Z,6.63
2019-02-25T18:33:13.670Z,6.45
2019-02-25T18:35:45.713Z,6.50
2019-02-25T18:38:14.688Z,6.53
2019-02-25T18:40:46.156Z,6.45
2019-02-25T18:43:14.386Z,6.33
2019-02-25T18:45:44.759Z,6.49
2019-02-25T18:48:13.850Z,6.55
2019-02-25T18:50:45.011Z,6.60
2019-02-25T18:53:13.554Z,6.44
2019-02-25T18:55:42.141Z,6.65
2019-02-25T18:58:14.305Z,6.63
2019-02-25T19:00:45.372Z,6.40
2019-02-25T19:03:14.727Z,6.26
2019-02-25T19:05:43.958Z,6.01
2019-02-25T19:08:19.633Z,5.90
2019-02-25T19:10:48.594Z,6.03
2019-02-25T19:13:20.508Z,6.02
2019-02-25T19:15:50.758Z,6.04
2019-02-25T19:18:19.432Z,5.92
2019-02-25T19:20:48.308Z,5.87
2019-02-25T19:23:16.934Z,5.83
2019-02-25T19:25:45.692Z,5.91
2019-02-25T19:28:18.712Z,5.56
2019-02-25T19:30:45.159Z,5.44
2019-02-25T19:33:13.912Z,5.61
2019-02-25T19:35:42.849Z,5.72
2019-02-25T19:38:13.426Z,5.59
2019-02-25T19:40:43.219Z,5.43
2019-02-25T19:43:12.403Z,5.45
2019-02-25T19:45:43.085Z,5.56
2019-02-25T19:48:11.508Z,5.57
2019-02-25T19:50:50.714Z,5.46
2019-02-25T19:53:12.481Z,5.57
2019-02-25T19:55:43.426Z,5.52
2019-02-25T19:58:11.723Z,5.24
2019-02-25T20:00:40.316Z,5.48
2019-02-25T20:03:09.323Z,5.70
2019-02-25T20:05:41.190Z,5.35
2019-02-25T20:08:09.092Z,5.17
2019-02-25T20:10:37.771Z,5.31
2019-02-25T20:13:08.698Z,5.30
2019-02-25T20:15:41.697Z,5.43
2019-02-25T20:18:09.935Z,5.24
2019-02-25T20:20:43.476Z,4.98
2019-02-25T20:23:12.232Z,4.92
2019-02-25T20:25:44.462Z,5.22
2019-02-25T20:28:12.240Z,5.29
2019-02-25T20:30:42.937Z,5.47
2019-02-25T20:33:11.704Z,5.32
2019-02-25T20:35:40.444Z,5.36
2019-02-25T20:38:09.215Z,5.27
2019-02-25T20:40:38.064Z,4.72
2019-02-25T20:43:06.999Z,4.71
2019-02-25T20:45:35.994Z,4.48
2019-02-25T20:48:05.367Z,4.60
2019-02-25T20:50:34.387Z,4.52
2019-02-25T20:53:05.958Z,4.85
2019-02-25T20:55:34.619Z,4.61
2019-02-25T20:58:05.195Z,4.31
2019-02-25T21:00:36.937Z,4.48
2019-02-25T21:03:05.024Z,4.29
2019-02-25T21:05:33.746Z,4.33
2019-02-25T21:08:03.431Z,4.44
2019-02-25T21:10:35.363Z,4.08
2019-02-25T21:13:02.762Z,3.95
2019-02-25T21:15:33.486Z,3.89
2019-02-25T21:18:04.471Z,3.86
2019-02-25T21:20:32.273Z,3.69
2019-02-25T21:23:04.870Z,3.81
2019-02-25T21:25:35.705Z,3.87
2019-02-25T21:28:04.885Z,4.13
2019-02-25T21:30:37.143Z,3.69
2019-02-25T21:33:04.432Z,3.59
2019-02-25T21:35:35.404Z,3.56
2019-02-25T21:38:05.929Z,3.72
2019-02-25T21:40:34.600Z,3.87
2019-02-25T21:43:03.160Z,3.68
2019-02-25T21:45:32.501Z,3.53
2019-02-25T21:48:04.179Z,3.49
2019-02-25T21:50:33.998Z,3.61
2019-02-25T21:53:04.893Z,3.77
2019-02-25T21:55:34.778Z,3.50
2019-02-25T21:58:04.947Z,3.26
2019-02-25T22:00:35.742Z,3.22
2019-02-25T22:03:04.481Z,3.14
2019-02-25T22:05:34.360Z,3.12
2019-02-25T22:08:04.105Z,3.23
2019-02-25T22:10:36.322Z,3.21
2019-02-25T22:13:06.679Z,3.25
2019-02-25T22:15:35.745Z,3.06
2019-02-25T22:18:06.131Z,2.99
2019-02-25T22:20:37.659Z,2.93
2019-02-25T22:23:05.790Z,3.04
2019-02-25T22:25:35.765Z,3.28
2019-02-25T22:28:05.371Z,2.75
2019-02-25T22:30:34.855Z,3.03
2019-02-25T22:33:04.810Z,2.69
2019-02-25T22:35:37.388Z,2.95
2019-02-25T22:38:04.921Z,2.93
2019-02-25T22:40:34.901Z,2.97
2019-02-25T22:43:04.081Z,3.11
2019-02-25T22:45:33.538Z,3.09
2019-02-25T22:48:03.493Z,2.71
2019-02-25T22:50:33.892Z,2.69
2019-02-25T22:53:04.217Z,2.88
2019-02-25T22:55:36.689Z,2.98
2019-02-25T22:58:04.381Z,2.85
2019-02-25T23:00:44.615Z,2.83
2019-02-25T23:03:16.033Z,2.91
2019-02-25T23:05:45.976Z,2.53
2019-02-25T23:08:15.490Z,2.45
2019-02-25T23:10:46.905Z,2.43
2019-02-25T23:13:15.647Z,2.48
2019-02-25T23:15:46.451Z,2.32
2019-02-25T23:18:16.888Z,2.26
2019-02-25T23:20:45.392Z,2.70
2019-02-25T23:23:13.994Z,2.58
2019-02-25T23:25:42.556Z,2.41
2019-02-25T23:28:11.396Z,2.65
2019-02-25T23:30:40.028Z,2.87
2019-02-25T23:33:11.994Z,2.90
2019-02-25T23:35:42.729Z,2.87
2019-02-25T23:38:10.630Z,2.86
2019-02-25T23:40:40.269Z,2.45
2019-02-25T23:43:11.587Z,2.46
2019-02-25T23:45:40.466Z,2.85
2019-02-25T23:48:11.723Z,2.59
2019-02-25T23:50:40.721Z,2.23
2019-02-25T23:53:09.397Z,2.35
2019-02-25T23:55:37.952Z,2.29
2019-02-25T23:58:10.259Z,2.46
